Time;durP1;ratioP1;P1;durP2;ratioP2;P2;SDS_P1;SDS_P2;PMS_P1;PMS_P2;Temp;Humidity;BMP_temperature;BMP_pressure;BME280_temperature;BME280_humidity;BME280_pressure;Samples;Min_cycle;Max_cycle;Signal;HPM_P1;HPM_P2
2022/03/12 00:00:35;;;;;;;15.37;9.40;;;3.50;44.80;;;;;;5070894;28;20093;-66
2022/03/12 00:03:01;;;;;;;13.60;9.47;;;3.50;44.20;;;;;;5070716;28;20111;-65
2022/03/12 00:05:29;;;;;;;18.00;9.30;;;3.50;43.70;;;;;;5070172;28;20029;-65
2022/03/12 00:07:55;;;;;;;16.50;9.23;;;3.50;43.70;;;;;;5070896;28;20107;-65
2022/03/12 00:10:23;;;;;;;17.50;9.10;;;3.60;43.40;;;;;;5070040;28;20178;-64
2022/03/12 00:12:50;;;;;;;14.77;8.67;;;3.60;43.70;;;;;;5069609;28;20036;-66
2022/03/12 00:15:16;;;;;;;18.93;9.80;;;3.60;42.70;;;;;;5070655;28;20028;-65
2022/03/12 00:17:46;;;;;;;14.63;8.70;;;3.60;42.80;;;;;;5072533;28;20488;-65
2022/03/12 00:20:18;;;;;;;14.80;8.23;;;3.50;42.40;;;;;;5072688;28;20388;-65
2022/03/12 00:22:47;;;;;;;19.00;9.00;;;3.50;43.00;;;;;;5072624;28;20036;-65
2022/03/12 00:25:19;;;;;;;14.70;8.43;;;3.50;43.30;;;;;;5073020;28;20040;-65
2022/03/12 00:27:45;;;;;;;13.70;8.47;;;3.50;42.40;;;;;;5072686;28;20174;-65
2022/03/12 00:30:17;;;;;;;14.97;9.20;;;3.50;42.00;;;;;;5072606;28;20500;-65
2022/03/12 00:32:44;;;;;;;17.23;8.40;;;3.60;41.90;;;;;;5072707;28;20025;-64
2022/03/12 00:35:10;;;;;;;13.83;8.67;;;3.60;41.40;;;;;;5072476;28;20024;-66
2022/03/12 00:37:36;;;;;;;13.20;8.43;;;3.70;41.10;;;;;;5072931;28;20044;-65
2022/03/12 00:40:04;;;;;;;11.67;7.60;;;3.60;40.70;;;;;;5073514;28;20114;-66
2022/03/12 00:42:30;;;;;;;13.50;8.43;;;3.60;40.90;;;;;;5073419;28;20086;-65
2022/03/12 00:44:56;;;;;;;14.07;8.37;;;3.60;41.60;;;;;;5074056;28;20044;-65
2022/03/12 00:47:22;;;;;;;15.20;7.93;;;3.50;41.30;;;;;;5073943;28;20043;-65
2022/03/12 00:49:50;;;;;;;15.57;8.23;;;3.50;41.40;;;;;;5074042;28;20119;-65
2022/03/12 00:52:16;;;;;;;12.83;8.13;;;3.50;41.30;;;;;;5074359;28;20028;-65
2022/03/12 00:54:43;;;;;;;14.00;8.57;;;3.50;41.40;;;;;;5072991;28;20492;-65
2022/03/12 00:57:11;;;;;;;13.47;8.37;;;3.50;41.40;;;;;;5073903;28;20497;-65
2022/03/12 00:59:38;;;;;;;12.77;8.13;;;3.50;40.90;;;;;;5073605;28;20048;-65
2022/03/12 01:02:05;;;;;;;12.43;7.97;;;3.60;40.60;;;;;;5074552;28;20131;-65
2022/03/12 01:04:31;;;;;;;13.57;8.00;;;3.50;40.60;;;;;;5073695;28;20040;-65
2022/03/12 01:06:57;;;;;;;14.10;7.60;;;3.50;40.70;;;;;;5073651;28;20083;-65
2022/03/12 01:09:23;;;;;;;13.70;7.30;;;3.50;40.50;;;;;;5072801;28;20036;-65
2022/03/12 01:11:49;;;;;;;13.10;7.60;;;3.50;40.80;;;;;;5073725;28;20032;-65
2022/03/12 01:14:15;;;;;;;12.23;7.87;;;3.50;40.90;;;;;;5074637;28;20123;-65
2022/03/12 01:16:42;;;;;;;13.40;8.33;;;3.50;41.70;;;;;;5073963;28;20089;-64
2022/03/12 01:19:08;;;;;;;13.37;7.70;;;3.40;40.90;;;;;;5074779;28;20119;-69
2022/03/12 01:21:34;;;;;;;13.57;7.90;;;3.40;41.40;;;;;;5075055;28;20037;-64
2022/03/12 01:23:59;;;;;;;14.53;7.93;;;3.40;41.10;;;;;;5074976;28;20036;-65
2022/03/12 01:26:26;;;;;;;20.00;7.57;;;3.40;41.20;;;;;;5074655;28;20037;-65
2022/03/12 01:28:52;;;;;;;14.20;7.73;;;3.40;40.70;;;;;;5074914;28;20040;-65
2022/03/12 01:31:18;;;;;;;14.83;7.10;;;3.30;41.40;;;;;;5074702;28;20025;-64
2022/03/12 01:33:45;;;;;;;12.57;7.60;;;3.20;41.10;;;;;;5075073;28;20078;-65
2022/03/12 01:36:11;;;;;;;14.03;7.23;;;3.20;41.10;;;;;;5074018;28;20033;-65
2022/03/12 01:38:49;;;;;;;13.00;8.10;;;3.20;41.20;;;;;;5074832;28;20039;-65
2022/03/12 01:41:22;;;;;;;12.33;7.53;;;3.20;41.60;;;;;;5074784;28;20507;-64
2022/03/12 01:43:49;;;;;;;;;;;3.10;41.80;;;;;;5074956;28;20048;-65
2022/03/12 01:46:16;;;;;;;12.73;7.53;;;3.10;42.30;;;;;;5074407;28;19904;-65
2022/03/12 01:48:50;;;;;;;15.77;7.63;;;3.10;41.70;;;;;;5074160;28;20067;-65
2022/03/12 01:51:16;;;;;;;10.93;7.47;;;3.10;41.50;;;;;;5074380;28;20040;-65
2022/03/12 01:53:43;;;;;;;12.00;6.77;;;3.10;41.00;;;;;;5074742;28;20029;-65
2022/03/12 01:56:09;;;;;;;11.80;7.53;;;3.10;41.40;;;;;;5074370;28;20483;-65
2022/03/12 01:58:35;;;;;;;19.00;7.33;;;3.10;41.50;;;;;;5072129;28;20076;-65
2022/03/12 02:01:02;;;;;;;11.13;6.90;;;3.10;41.70;;;;;;5071489;28;20442;-65
2022/03/12 02:03:28;;;;;;;13.13;7.27;;;3.00;41.10;;;;;;5071995;28;20052;-65
2022/03/12 02:05:56;;;;;;;15.67;7.07;;;3.00;40.90;;;;;;5073189;28;20481;-65
2022/03/12 02:08:22;;;;;;;13.77;6.93;;;3.00;40.70;;;;;;5074218;28;20051;-65
2022/03/12 02:10:50;;;;;;;15.83;7.00;;;3.10;40.30;;;;;;5073881;28;20072;-65
2022/03/12 02:13:17;;;;;;;11.73;7.50;;;3.10;40.50;;;;;;5073620;28;20044;-65
2022/03/12 02:15:43;;;;;;;18.00;7.63;;;3.10;40.10;;;;;;5073826;28;20059;-65
2022/03/12 02:18:12;;;;;;;13.77;6.50;;;3.00;40.80;;;;;;5073303;28;20519;-65
2022/03/12 02:20:38;;;;;;;11.23;6.90;;;3.00;41.40;;;;;;5073690;28;20089;-65
2022/03/12 02:23:07;;;;;;;11.50;6.80;;;3.00;41.90;;;;;;5073869;28;20119;-66
2022/03/12 02:25:34;;;;;;;14.03;6.83;;;3.00;40.90;;;;;;5073243;28;20070;-65
2022/03/12 02:28:02;;;;;;;10.80;6.27;;;3.00;40.90;;;;;;5073596;28;20086;-65
2022/03/12 02:30:39;;;;;;;14.03;7.40;;;3.00;40.80;;;;;;5073724;28;20118;-65
2022/03/12 02:33:05;;;;;;;9.73;5.87;;;3.00;40.60;;;;;;5073110;28;20040;-65
2022/03/12 02:35:34;;;;;;;12.73;6.67;;;3.00;40.00;;;;;;5072887;28;20036;-65
2022/03/12 02:38:01;;;;;;;12.53;6.83;;;3.00;39.50;;;;;;5073706;28;20028;-65
2022/03/12 02:40:27;;;;;;;11.73;7.07;;;3.00;40.60;;;;;;5074394;28;20071;-65
2022/03/12 02:42:55;;;;;;;12.17;6.97;;;3.00;40.40;;;;;;5073171;28;20501;-65
2022/03/12 02:45:22;;;;;;;12.40;7.07;;;3.00;40.40;;;;;;5072417;28;20037;-65
2022/03/12 02:47:48;;;;;;;13.70;6.97;;;2.90;40.20;;;;;;5072791;28;20071;-65
2022/03/12 02:50:14;;;;;;;14.53;6.73;;;2.90;41.20;;;;;;5073868;28;20068;-65
2022/03/12 02:52:44;;;;;;;10.37;6.63;;;2.80;41.30;;;;;;5073972;28;20167;-65
2022/03/12 02:55:14;;;;;;;11.50;6.57;;;2.80;41.50;;;;;;5074280;28;20495;-64
2022/03/12 02:57:43;;;;;;;9.80;6.60;;;2.70;42.10;;;;;;5074063;28;20074;-65
2022/03/12 03:00:10;;;;;;;10.60;6.40;;;2.70;41.90;;;;;;5073157;28;20045;-65
2022/03/12 03:02:39;;;;;;;15.97;6.57;;;2.70;41.60;;;;;;5073402;28;20082;-66
2022/03/12 03:07:55;;;;;;;11.73;6.83;;;2.60;41.80;;;;;;5072882;28;20060;-65
2022/03/12 03:10:34;;;;;;;18.43;6.77;;;2.60;41.20;;;;;;5073026;28;20040;-65
2022/03/12 03:13:19;;;;;;;11.07;6.43;;;2.60;42.00;;;;;;5071557;28;20049;-65
2022/03/12 03:16:01;;;;;;;13.03;7.30;;;2.60;42.10;;;;;;5072965;28;20074;-65
2022/03/12 03:18:39;;;;;;;11.93;6.80;;;2.60;42.00;;;;;;5071714;28;20404;-65
2022/03/12 03:21:08;;;;;;;13.53;7.40;;;2.60;42.10;;;;;;5071204;28;20618;-65
2022/03/12 03:23:34;;;;;;;13.83;7.90;;;2.60;41.90;;;;;;5071901;28;20033;-65
2022/03/12 03:26:01;;;;;;;10.73;7.10;;;2.60;42.70;;;;;;5071875;28;20073;-64
2022/03/12 03:28:26;;;;;;;13.30;7.33;;;2.60;42.50;;;;;;5072248;28;20039;-65
2022/03/12 03:30:52;;;;;;;12.53;6.40;;;2.60;42.40;;;;;;5071732;28;20380;-65
2022/03/12 03:33:21;;;;;;;9.33;6.43;;;2.60;42.80;;;;;;5071545;28;20136;-65
2022/03/12 03:35:47;;;;;;;16.37;6.53;;;2.50;42.30;;;;;;5070826;28;20051;-65
2022/03/12 03:38:14;;;;;;;10.53;7.17;;;2.50;42.60;;;;;;5070825;28;20040;-65
2022/03/12 03:40:41;;;;;;;11.63;7.10;;;2.40;42.10;;;;;;5070619;28;20048;-65
2022/03/12 03:43:11;;;;;;;12.00;6.77;;;2.40;41.60;;;;;;5069886;28;20116;-65
2022/03/12 03:45:37;;;;;;;10.57;6.40;;;2.40;40.90;;;;;;5070686;28;20033;-65
2022/03/12 03:48:03;;;;;;;11.43;6.77;;;2.40;40.90;;;;;;5070160;28;20484;-66
2022/03/12 03:50:28;;;;;;;23.67;8.77;;;2.40;41.70;;;;;;5069706;28;20033;-65
2022/03/12 03:53:03;;;;;;;10.67;6.50;;;2.40;42.20;;;;;;5070536;28;20036;-64
2022/03/12 03:55:34;;;;;;;11.77;7.00;;;2.40;42.60;;;;;;5070467;28;20078;-65
2022/03/12 03:58:00;;;;;;;11.77;6.97;;;2.30;42.40;;;;;;5070232;28;20561;-64
2022/03/12 04:00:27;;;;;;;11.80;6.93;;;2.30;42.90;;;;;;5069552;28;20071;-65
2022/03/12 04:03:04;;;;;;;10.10;6.47;;;2.20;43.10;;;;;;5071312;28;20481;-65
2022/03/12 04:05:34;;;;;;;12.23;6.47;;;2.10;43.60;;;;;;5072756;28;20044;-65
2022/03/12 04:08:01;;;;;;;10.70;6.57;;;2.10;43.90;;;;;;5073082;28;20400;-65
2022/03/12 04:10:28;;;;;;;11.80;7.40;;;2.10;43.70;;;;;;5071708;28;20116;-65
2022/03/12 04:12:57;;;;;;;10.57;6.33;;;2.00;43.10;;;;;;5068693;28;20405;-65
2022/03/12 04:15:24;;;;;;;10.40;6.60;;;2.00;43.10;;;;;;5069913;28;20056;-65
2022/03/12 04:17:51;;;;;;;9.97;6.60;;;2.00;43.40;;;;;;5069605;28;20583;-65
2022/03/12 04:20:20;;;;;;;9.60;6.20;;;2.00;43.70;;;;;;5068940;28;20037;-65
2022/03/12 04:22:51;;;;;;;13.23;6.83;;;2.00;43.20;;;;;;5069337;28;20033;-65
2022/03/12 04:25:18;;;;;;;10.83;6.73;;;2.10;42.70;;;;;;5069523;28;20039;-65
2022/03/12 04:27:44;;;;;;;9.87;6.63;;;2.10;43.00;;;;;;5069163;28;20029;-65
2022/03/12 04:30:15;;;;;;;13.27;7.33;;;2.00;43.30;;;;;;5068978;28;20040;-65
2022/03/12 04:32:42;;;;;;;12.27;6.97;;;2.00;43.10;;;;;;5069160;28;20492;-67
2022/03/12 04:35:09;;;;;;;10.37;6.70;;;2.00;43.70;;;;;;5070098;28;20047;-65
2022/03/12 04:37:36;;;;;;;10.40;6.73;;;2.00;43.40;;;;;;5070522;28;20036;-65
2022/03/12 04:40:10;;;;;;;11.00;6.93;;;2.00;42.70;;;;;;5070733;28;20036;-65
2022/03/12 04:42:43;;;;;;;20.67;7.77;;;1.90;42.30;;;;;;5071653;28;20035;-65
2022/03/12 04:45:11;;;;;;;12.83;7.07;;;1.90;43.10;;;;;;5071375;28;20051;-65
2022/03/12 04:47:41;;;;;;;11.97;6.70;;;1.90;43.10;;;;;;5071588;28;20032;-65
2022/03/12 04:50:08;;;;;;;12.47;7.33;;;1.90;43.10;;;;;;5071441;28;20102;-65
2022/03/12 04:52:35;;;;;;;14.17;7.13;;;1.90;43.10;;;;;;5071337;28;20384;-65
2022/03/12 04:55:17;;;;;;;11.53;6.33;;;1.80;44.20;;;;;;5071464;28;20040;-65
2022/03/12 04:57:43;;;;;;;13.57;6.27;;;1.80;43.90;;;;;;5071690;28;20032;-65
2022/03/12 05:00:38;;;;;;;10.63;6.83;;;1.80;43.20;;;;;;5071542;28;20051;-65
2022/03/12 05:03:08;;;;;;;9.70;6.20;;;1.80;43.50;;;;;;5069377;28;20513;-68
2022/03/12 05:05:40;;;;;;;12.07;6.80;;;1.80;43.70;;;;;;5071381;28;20037;-68
2022/03/12 05:08:09;;;;;;;10.50;6.68;;;1.80;43.20;;;;;;5071520;28;20035;-64
2022/03/12 05:10:34;;;;;;;11.40;7.00;;;1.70;43.10;;;;;;5071701;28;20041;-65
2022/03/12 05:13:00;;;;;;;12.10;6.13;;;1.80;43.20;;;;;;5071208;28;20086;-66
2022/03/12 05:15:37;;;;;;;10.70;6.50;;;1.80;42.60;;;;;;5071077;28;20156;-65
2022/03/12 05:18:11;;;;;;;12.90;6.37;;;1.90;41.90;;;;;;5071431;28;20036;-65
2022/03/12 05:20:39;;;;;;;13.10;6.33;;;1.90;42.20;;;;;;5071324;28;20044;-65
2022/03/12 05:23:07;;;;;;;11.17;6.77;;;1.90;42.20;;;;;;5073163;28;20029;-65
2022/03/12 05:25:34;;;;;;;14.57;7.63;;;1.90;41.80;;;;;;5074765;28;20513;-65
2022/03/12 05:28:00;;;;;;;11.97;6.50;;;1.90;42.70;;;;;;5075110;28;20060;-65
2022/03/12 05:30:27;;;;;;;15.23;6.93;;;1.90;42.50;;;;;;5074969;28;20129;-65
2022/03/12 05:32:53;;;;;;;9.67;6.20;;;1.80;42.20;;;;;;5074838;28;20167;-65
2022/03/12 05:35:20;;;;;;;11.27;5.93;;;1.80;42.20;;;;;;5074972;28;20120;-65
2022/03/12 05:37:50;;;;;;;10.30;6.33;;;1.80;42.20;;;;;;5074590;28;20043;-65
2022/03/12 05:40:24;;;;;;;9.80;6.13;;;1.90;41.30;;;;;;5074492;28;20517;-65
2022/03/12 05:42:49;;;;;;;12.00;5.97;;;1.90;41.20;;;;;;5074652;28;20032;-65
2022/03/12 05:45:18;;;;;;;8.83;5.80;;;1.90;40.90;;;;;;5074505;28;20024;-65
2022/03/12 05:47:45;;;;;;;9.77;6.03;;;2.00;41.90;;;;;;5074305;28;20039;-65
2022/03/12 05:50:13;;;;;;;8.27;5.23;;;2.10;40.80;;;;;;5074528;28;20416;-65
2022/03/12 05:52:47;;;;;;;10.23;6.30;;;2.10;40.80;;;;;;5074526;28;20044;-65
2022/03/12 05:55:14;;;;;;;12.97;6.13;;;2.20;40.90;;;;;;5074425;28;20535;-65
2022/03/12 05:57:40;;;;;;;10.37;5.77;;;2.20;40.20;;;;;;5074344;28;20047;-65
2022/03/12 06:00:11;;;;;;;9.33;6.03;;;2.30;39.50;;;;;;5074523;28;20595;-65
2022/03/12 06:02:40;;;;;;;10.67;5.90;;;2.40;39.20;;;;;;5074523;28;20040;-65
2022/03/12 06:05:08;;;;;;;11.00;6.17;;;2.40;39.30;;;;;;5074190;28;20041;-65
2022/03/12 06:07:35;;;;;;;16.77;6.40;;;2.50;39.30;;;;;;5074174;28;20473;-65
2022/03/12 06:10:01;;;;;;;11.00;6.17;;;2.50;39.30;;;;;;5074246;28;20028;-65
2022/03/12 06:12:27;;;;;;;9.90;5.77;;;2.60;39.70;;;;;;5073826;28;20390;-65
2022/03/12 06:14:55;;;;;;;10.60;6.10;;;2.60;39.00;;;;;;5074077;28;20041;-65
2022/03/12 06:17:24;;;;;;;10.47;5.83;;;2.70;38.20;;;;;;5074046;28;20599;-65
2022/03/12 06:19:50;;;;;;;10.27;5.20;;;2.80;38.00;;;;;;5073954;28;20036;-66
2022/03/12 06:22:16;;;;;;;9.13;5.77;;;2.80;38.20;;;;;;5073360;28;20039;-65
2022/03/12 06:24:41;;;;;;;12.33;5.60;;;2.90;37.70;;;;;;5073668;28;20094;-65
2022/03/12 06:27:07;;;;;;;13.43;6.70;;;3.00;37.50;;;;;;5073632;28;20036;-65
2022/03/12 06:29:34;;;;;;;11.07;6.10;;;3.10;37.50;;;;;;5073378;28;20564;-65
2022/03/12 06:32:01;;;;;;;8.40;5.40;;;3.20;37.90;;;;;;5073478;28;20056;-64
2022/03/12 06:34:28;;;;;;;8.90;4.90;;;3.30;37.90;;;;;;5072317;28;20556;-65
2022/03/12 06:36:54;;;;;;;13.73;5.60;;;3.40;37.10;;;;;;5073498;28;20036;-65
2022/03/12 06:39:20;;;;;;;9.87;5.27;;;3.50;36.70;;;;;;5073817;28;20051;-65
2022/03/12 06:41:46;;;;;;;9.33;5.40;;;3.50;37.30;;;;;;5073546;28;20041;-65
2022/03/12 06:44:17;;;;;;;8.13;5.17;;;3.60;37.00;;;;;;5073524;28;20431;-67
2022/03/12 06:46:44;;;;;;;9.97;5.10;;;3.60;37.30;;;;;;5073679;28;20078;-65
2022/03/12 06:49:09;;;;;;;11.40;5.63;;;3.70;37.10;;;;;;5074158;28;20106;-65
2022/03/12 06:51:35;;;;;;;9.70;5.27;;;3.80;36.80;;;;;;5073742;28;20092;-66
2022/03/12 06:54:01;;;;;;;10.03;5.53;;;3.80;36.60;;;;;;5074210;28;20401;-65
2022/03/12 06:56:28;;;;;;;11.37;5.57;;;3.90;37.00;;;;;;5073319;28;20028;-65
2022/03/12 06:58:54;;;;;;;9.50;5.93;;;3.90;36.60;;;;;;5072832;28;20063;-66
2022/03/12 07:01:20;;;;;;;13.10;5.80;;;4.00;36.80;;;;;;5073041;28;20047;-65
2022/03/12 07:03:45;;;;;;;10.17;5.17;;;4.10;37.00;;;;;;5072721;28;20036;-65
2022/03/12 07:06:11;;;;;;;8.93;5.27;;;4.10;36.40;;;;;;5072657;28;20119;-65
2022/03/12 07:08:38;;;;;;;8.77;5.57;;;4.20;36.70;;;;;;5072448;28;20033;-65
2022/03/12 07:11:05;;;;;;;15.13;5.43;;;4.30;36.60;;;;;;5072391;28;20033;-65
2022/03/12 07:13:31;;;;;;;7.93;5.30;;;4.40;36.00;;;;;;5071937;28;20113;-65
2022/03/12 07:16:00;;;;;;;9.73;5.20;;;4.50;35.90;;;;;;5072126;28;20504;-65
2022/03/12 07:18:27;;;;;;;8.20;5.67;;;4.60;35.60;;;;;;5070135;28;20048;-64
2022/03/12 07:20:52;;;;;;;10.43;5.40;;;4.70;35.50;;;;;;5070912;28;20044;-67
2022/03/12 07:23:19;;;;;;;9.27;5.37;;;4.80;34.80;;;;;;5069697;28;20389;-67
2022/03/12 07:25:46;;;;;;;7.90;5.10;;;4.80;35.10;;;;;;5070324;28;20056;-67
2022/03/12 07:28:17;;;;;;;15.97;5.20;;;4.90;35.30;;;;;;5071371;28;20037;-66
2022/03/12 07:30:43;;;;;;;8.80;5.47;;;4.90;35.10;;;;;;5072845;28;20472;-67
2022/03/12 07:33:09;;;;;;;8.87;5.20;;;5.00;35.30;;;;;;5073008;28;20051;-67
2022/03/12 07:35:35;;;;;;;10.53;5.90;;;5.10;35.60;;;;;;5073077;28;20028;-66
2022/03/12 07:38:01;;;;;;;11.07;5.60;;;5.20;34.60;;;;;;5072668;28;20037;-68
2022/03/12 07:40:27;;;;;;;11.17;5.90;;;5.20;34.90;;;;;;5073262;28;20040;-66
2022/03/12 07:42:52;;;;;;;13.07;6.37;;;5.30;34.90;;;;;;5073435;28;20082;-67
2022/03/12 07:45:19;;;;;;;12.77;6.37;;;5.40;34.60;;;;;;5072724;28;20488;-68
2022/03/12 07:47:47;;;;;;;13.67;6.57;;;5.50;35.10;;;;;;5072710;28;20990;-67
2022/03/12 07:50:13;;;;;;;9.83;6.83;;;5.50;34.90;;;;;;5073051;28;20028;-66
2022/03/12 07:52:40;;;;;;;13.60;6.33;;;5.60;34.40;;;;;;5073031;28;20036;-67
2022/03/12 07:55:09;;;;;;;12.93;6.93;;;5.60;33.90;;;;;;5073091;28;20040;-66
2022/03/12 07:57:36;;;;;;;12.13;7.20;;;5.70;34.20;;;;;;5073283;28;20496;-66
2022/03/12 08:00:06;;;;;;;14.30;8.47;;;5.80;34.30;;;;;;5072605;28;20049;-67
2022/03/12 08:02:32;;;;;;;14.23;8.03;;;5.90;34.30;;;;;;5072996;28;20056;-66
2022/03/12 08:04:58;;;;;;;16.80;9.23;;;6.00;34.40;;;;;;5072949;28;20037;-67
2022/03/12 08:07:24;;;;;;;17.30;9.47;;;6.10;34.30;;;;;;5072636;28;20047;-67
2022/03/12 08:09:56;;;;;;;15.90;8.93;;;6.10;34.30;;;;;;5073163;28;20491;-67
2022/03/12 08:12:31;;;;;;;17.33;9.07;;;6.20;34.10;;;;;;5072542;28;20392;-67
2022/03/12 08:15:03;;;;;;;14.43;8.13;;;6.30;33.40;;;;;;5072665;28;20050;-67
2022/03/12 08:17:29;;;;;;;16.17;9.68;;;6.40;33.30;;;;;;5069603;28;20066;-66
2022/03/12 08:19:55;;;;;;;16.80;7.97;;;6.50;32.90;;;;;;5069091;28;20053;-67
2022/03/12 08:22:21;;;;;;;13.37;7.20;;;6.60;32.50;;;;;;5070711;28;20476;-67
2022/03/12 08:24:47;;;;;;;12.93;7.07;;;6.70;33.20;;;;;;5032933;28;20079;-66
2022/03/12 08:27:14;;;;;;;20.30;10.30;;;6.80;32.70;;;;;;5072406;28;20051;-66
2022/03/12 08:29:41;;;;;;;19.33;9.73;;;6.80;32.70;;;;;;5072431;28;20115;-66
2022/03/12 08:32:08;;;;;;;19.17;10.63;;;6.90;32.30;;;;;;5072747;28;20037;-67
2022/03/12 08:34:34;;;;;;;15.07;9.00;;;7.00;32.20;;;;;;5072616;28;20116;-66
2022/03/12 08:37:01;;;;;;;13.53;7.70;;;7.00;31.80;;;;;;5072590;28;20435;-65
2022/03/12 08:39:27;;;;;;;11.57;7.13;;;7.10;31.80;;;;;;5072797;28;20045;-66
2022/03/12 08:41:53;;;;;;;11.33;6.60;;;7.20;31.80;;;;;;5072115;28;20123;-66
2022/03/12 08:44:20;;;;;;;10.73;6.67;;;7.20;31.50;;;;;;5072320;28;20120;-67
2022/03/12 08:46:46;;;;;;;9.83;6.43;;;7.30;31.10;;;;;;5072399;28;20396;-67
2022/03/12 08:49:13;;;;;;;11.13;6.57;;;7.40;31.40;;;;;;5072704;28;20041;-66
2022/03/12 08:51:39;;;;;;;14.23;7.37;;;7.40;31.20;;;;;;5072253;28;20029;-66
2022/03/12 08:54:06;;;;;;;14.40;6.40;;;7.50;30.30;;;;;;5072165;28;20055;-66
2022/03/12 08:56:32;;;;;;;11.60;6.90;;;7.60;31.20;;;;;;5071859;28;20469;-67
2022/03/12 08:58:58;;;;;;;11.20;6.37;;;7.60;31.20;;;;;;5075435;28;20040;-66
2022/03/12 09:01:25;;;;;;;9.77;6.10;;;7.70;30.50;;;;;;5075955;28;20499;-71
2022/03/12 09:03:51;;;;;;;13.73;6.37;;;7.80;30.00;;;;;;5075875;28;20039;-66
2022/03/12 09:06:18;;;;;;;9.50;5.83;;;7.80;30.30;;;;;;5075164;28;20028;-71
2022/03/12 09:08:45;;;;;;;10.83;6.47;;;7.80;30.00;;;;;;5075037;28;20025;-66
2022/03/12 09:11:12;;;;;;;11.97;6.03;;;7.90;30.00;;;;;;5075030;28;20124;-68
2022/03/12 09:13:37;;;;;;;9.47;5.60;;;7.90;29.90;;;;;;5089538;28;20040;-66
2022/03/12 09:16:05;;;;;;;12.10;6.10;;;7.90;29.80;;;;;;5095938;28;20032;-69
2022/03/12 09:18:31;;;;;;;8.23;5.80;;;8.00;29.60;;;;;;5077784;28;20423;-73
2022/03/12 09:20:57;;;;;;;10.47;5.70;;;8.00;30.00;;;;;;5094813;28;20039;-66
2022/03/12 09:23:22;;;;;;;11.93;5.00;;;8.10;30.20;;;;;;5095918;28;20032;-67
2022/03/12 09:25:50;;;;;;;6.47;4.20;;;8.10;30.00;;;;;;5078249;28;20033;-66
2022/03/12 09:28:17;;;;;;;8.90;5.27;;;8.20;30.10;;;;;;5075319;28;20059;-67
2022/03/12 09:30:44;;;;;;;6.70;5.23;;;8.20;28.70;;;;;;5074467;28;20033;-67
2022/03/12 09:33:10;;;;;;;8.27;5.57;;;8.30;29.00;;;;;;5074695;28;20032;-66
2022/03/12 09:35:36;;;;;;;8.30;5.10;;;8.20;28.70;;;;;;5075877;28;20074;-68
2022/03/12 09:38:03;;;;;;;9.83;5.23;;;8.20;28.90;;;;;;5075669;28;20044;-72
2022/03/12 09:40:30;;;;;;;9.90;5.17;;;8.20;29.50;;;;;;5075671;28;20051;-66
2022/03/12 09:42:56;;;;;;;9.70;4.90;;;8.30;28.30;;;;;;5075489;28;20084;-67
2022/03/12 09:45:23;;;;;;;10.93;4.60;;;8.30;29.70;;;;;;5075566;28;20489;-67
2022/03/12 09:47:50;;;;;;;8.57;5.10;;;8.40;28.20;;;;;;5075524;28;20477;-67
2022/03/12 09:50:16;;;;;;;11.40;4.50;;;8.40;28.60;;;;;;5075358;28;20028;-67
2022/03/12 09:52:42;;;;;;;7.90;4.63;;;8.50;29.00;;;;;;5075368;28;20047;-67
2022/03/12 09:55:08;;;;;;;9.30;4.27;;;8.50;28.60;;;;;;5075374;28;20028;-67
2022/03/12 09:57:34;;;;;;;9.07;5.53;;;8.60;28.40;;;;;;5075195;28;20036;-67
2022/03/12 10:00:06;;;;;;;8.83;4.60;;;8.70;29.10;;;;;;5074479;28;20481;-73
2022/03/12 10:02:32;;;;;;;6.07;4.33;;;8.90;29.40;;;;;;5073944;28;20033;-67
2022/03/12 10:04:58;;;;;;;7.67;4.40;;;9.00;29.00;;;;;;5073026;28;20060;-71
2022/03/12 10:07:24;;;;;;;8.47;4.80;;;9.10;29.10;;;;;;5074343;28;20060;-72
2022/03/12 10:09:50;;;;;;;6.83;4.27;;;9.30;28.50;;;;;;5074659;28;20044;-74
2022/03/12 10:12:19;;;;;;;8.73;4.40;;;9.30;28.30;;;;;;5073692;28;20090;-67
2022/03/12 10:14:44;;;;;;;5.63;3.83;;;9.40;27.30;;;;;;5074516;28;20036;-67
2022/03/12 10:17:11;;;;;;;7.13;4.03;;;9.40;26.70;;;;;;5075000;28;20039;-67
2022/03/12 10:19:37;;;;;;;9.03;4.00;;;9.40;25.90;;;;;;5075149;28;20058;-67
2022/03/12 10:22:05;;;;;;;12.60;4.07;;;9.40;26.70;;;;;;5074188;28;20476;-67
2022/03/12 10:24:31;;;;;;;6.50;3.70;;;9.40;25.50;;;;;;5074867;28;20484;-67
2022/03/12 10:26:56;;;;;;;8.53;4.33;;;9.40;25.90;;;;;;5075035;28;20077;-67
2022/03/12 10:29:22;;;;;;;4.70;3.70;;;9.50;25.20;;;;;;5074743;28;20081;-67
2022/03/12 10:31:48;;;;;;;4.87;3.37;;;9.50;25.50;;;;;;5074673;28;20039;-67
2022/03/12 10:34:18;;;;;;;5.60;3.20;;;9.50;25.10;;;;;;5074208;28;20115;-68
2022/03/12 10:36:46;;;;;;;6.60;3.70;;;9.50;24.50;;;;;;5074726;28;20044;-67
2022/03/12 10:39:12;;;;;;;7.40;3.43;;;9.40;26.20;;;;;;5074404;28;20041;-67
2022/03/12 10:41:39;;;;;;;8.23;3.53;;;9.50;25.40;;;;;;5074214;28;20040;-67
2022/03/12 10:44:06;;;;;;;9.67;3.47;;;9.60;25.00;;;;;;5074337;28;20037;-67
2022/03/12 10:46:33;;;;;;;5.03;3.60;;;9.60;25.60;;;;;;5074326;28;20110;-67
2022/03/12 10:49:02;;;;;;;5.63;3.40;;;9.70;26.20;;;;;;5074073;28;20047;-67
2022/03/12 10:51:34;;;;;;;5.57;3.63;;;9.80;25.50;;;;;;5074688;28;20036;-66
2022/03/12 10:54:05;;;;;;;;;;;10.00;25.50;;;;;;5075012;28;20079;-67
2022/03/12 10:56:50;;;;;;;5.20;3.20;;;10.10;24.40;;;;;;5074615;28;19961;-73
2022/03/12 10:59:22;;;;;;;6.17;3.73;;;10.20;24.80;;;;;;5074133;28;20036;-67
2022/03/12 11:01:52;;;;;;;4.80;3.63;;;10.20;24.60;;;;;;5074460;28;20389;-68
2022/03/12 11:04:21;;;;;;;5.60;3.60;;;10.20;25.20;;;;;;5074463;28;20055;-66
2022/03/12 11:06:46;;;;;;;4.77;3.53;;;10.30;25.70;;;;;;5074269;28;20035;-67
2022/03/12 11:09:18;;;;;;;4.00;2.90;;;10.40;26.60;;;;;;5056528;28;20116;-67
2022/03/12 11:11:46;;;;;;;9.90;3.77;;;10.60;24.80;;;;;;5073634;28;20041;-68
2022/03/12 11:14:20;;;;;;;8.93;4.17;;;10.70;24.80;;;;;;5073109;28;20279;-67
2022/03/12 11:16:55;;;;;;;6.87;3.43;;;10.80;24.70;;;;;;5073684;28;20028;-67
2022/03/12 11:19:40;;;;;;;4.50;3.07;;;10.80;24.30;;;;;;5073594;28;20520;-68
2022/03/12 11:22:16;;;;;;;7.80;3.80;;;10.90;24.50;;;;;;5073166;28;20485;-67
2022/03/12 11:24:46;;;;;;;8.10;2.90;;;10.90;24.10;;;;;;5073635;28;20419;-67
2022/03/12 11:27:26;;;;;;;4.90;3.13;;;11.00;23.00;;;;;;5073337;28;20037;-67
2022/03/12 11:29:57;;;;;;;4.10;3.50;;;11.00;23.50;;;;;;5073429;28;20056;-67
2022/03/12 11:32:23;;;;;;;5.07;3.47;;;11.10;23.70;;;;;;5073436;28;20040;-67
2022/03/12 11:34:49;;;;;;;6.60;3.50;;;11.20;23.30;;;;;;5072422;28;20412;-73
2022/03/12 11:37:18;;;;;;;6.20;3.67;;;11.20;23.80;;;;;;5073230;28;20029;-68
2022/03/12 11:39:52;;;;;;;6.93;3.70;;;11.20;23.60;;;;;;5073199;28;20040;-68
2022/03/12 11:42:23;;;;;;;5.27;3.30;;;11.30;24.10;;;;;;5055285;28;20060;-67
2022/03/12 11:44:52;;;;;;;5.63;3.53;;;11.40;22.10;;;;;;5073363;28;20090;-73
2022/03/12 11:47:21;;;;;;;5.57;3.40;;;11.40;23.50;;;;;;5073189;28;20056;-66
2022/03/12 11:49:47;;;;;;;6.93;4.07;;;11.50;23.80;;;;;;5073407;28;20033;-72
2022/03/12 11:52:14;;;;;;;7.68;4.28;;;11.60;23.50;;;;;;5073882;28;20056;-67
2022/03/12 11:54:46;;;;;;;6.28;4.20;;;11.60;23.90;;;;;;5073210;28;20039;-74
2022/03/12 11:57:34;;;;;;;5.53;3.72;;;11.70;23.50;;;;;;5073136;28;20032;-67
2022/03/12 12:00:01;;;;;;;5.55;3.72;;;11.70;23.30;;;;;;5073285;28;20057;-67
2022/03/12 12:02:31;;;;;;;5.85;3.40;;;11.70;23.40;;;;;;5073098;28;20037;-70
2022/03/12 12:05:05;;;;;;;5.05;3.72;;;11.80;22.60;;;;;;5073163;28;20041;-67
2022/03/12 12:07:41;;;;;;;4.95;3.67;;;11.90;24.00;;;;;;5072876;28;20048;-67
2022/03/12 12:10:09;;;;;;;5.53;3.80;;;12.00;21.90;;;;;;5072922;28;20033;-67
2022/03/12 12:12:35;;;;;;;8.35;3.92;;;12.00;22.60;;;;;;5072470;28;20129;-66
2022/03/12 12:15:04;;;;;;;6.53;3.70;;;12.00;23.10;;;;;;5072884;28;20392;-67
2022/03/12 12:17:32;;;;;;;10.70;3.85;;;12.10;24.40;;;;;;5072556;28;20047;-67
2022/03/12 12:19:58;;;;;;;7.80;3.80;;;12.20;23.80;;;;;;5072450;28;20044;-67
2022/03/12 12:22:25;;;;;;;5.72;4.13;;;12.40;24.20;;;;;;5072619;28;20115;-67
2022/03/12 12:24:56;;;;;;;5.90;4.30;;;12.60;23.10;;;;;;5072561;28;20171;-67
2022/03/12 12:27:23;;;;;;;6.10;4.13;;;12.70;24.30;;;;;;5072712;28;20090;-67
2022/03/12 12:29:54;;;;;;;9.35;3.97;;;12.90;24.40;;;;;;5070405;28;20178;-68
2022/03/12 12:32:26;;;;;;;8.40;4.03;;;13.10;23.90;;;;;;5069572;28;20040;-68
2022/03/12 12:35:19;;;;;;;7.72;3.88;;;13.10;23.30;;;;;;5074010;28;20070;-68
2022/03/12 12:37:52;;;;;;;5.90;3.90;;;13.20;23.30;;;;;;5074064;28;20044;-67
2022/03/12 12:40:39;;;;;;;9.77;4.20;;;13.30;23.20;;;;;;5076490;28;20051;-68
2022/03/12 12:43:09;;;;;;;7.55;4.32;;;13.40;23.30;;;;;;5076424;28;20033;-67
2022/03/12 12:45:55;;;;;;;6.97;4.50;;;13.40;23.30;;;;;;5076051;28;20037;-66
2022/03/12 12:48:38;;;;;;;7.43;4.43;;;13.50;22.90;;;;;;5076328;28;20099;-67
2022/03/12 12:51:21;;;;;;;6.72;4.10;;;13.50;22.60;;;;;;5076224;28;20404;-67
2022/03/12 12:53:48;;;;;;;8.88;4.15;;;13.60;21.70;;;;;;5076560;28;20043;-67
2022/03/12 12:56:26;;;;;;;8.40;4.20;;;13.50;21.90;;;;;;5076358;28;20039;-67
2022/03/12 12:58:51;;;;;;;6.25;4.20;;;13.50;22.30;;;;;;5075586;28;20040;-67